Ride Results

NEEC Lebrina (07-04-2012)
Ride distance: 80.0 km

Outcomes - NEEC Lebrina (07-04-2012)
Division No. of Entries Retired / DNE Completed Withdrawn Ineligible V/O Percentage Completed
HW 10 - 6 1 - 3 60.00%
MW 19 - 15 - - 4 78.95%
LW 9 - 9 - - - 100.00%
JN 8 - 6 - - 2 75.00%
Totals 46 - 36 1 - 9 78.26%
Results - NEEC Lebrina (07-04-2012)
No. Rider Horse Place Time Leg Speeds Total
Km/Hr
H/R bpm
Heavyweight
38 Tony Purton Jeshar Park Shahriann 1 5:11:00 17.0, 14.1 15.43 40, 47, 51 (Avg:49)
80 Noel Lockhart The Hobbit 2 (BC) 5:12:00 16.4, 14.4 15.38 31, 48, 49 (Avg:48)
207 Jan Lewin Dot Com R.U. One Two 3 6:05:00 15.4, 11.4 13.15 27, 42, 52 (Avg:47)
45 Denise Williams Valley Springs Summer Haze 4 6:27:00 14.6, 10.7 12.40 36, 46, 56 (Avg:51)
199 Dennis Foley Jnr Tarrangaw Lonestar 5 7:03:00 12.9, 10.0 11.35 36, 47, 48 (Avg:47)
158 Ember Lockhart Glanheathyn Curio 5 7:03:00 13.1, 9.9 11.35 35, 44, 56 (Avg:50)
25 Ian Sward Chewbacca Heart Rate L2 0:00:00 10.4, 9.5 - 44, 54, 71 (Avg:62)
193 Alf Barnes Cranbrook Park Tank Withdrawn L1 0:00:00 - - 36, 46 (Avg:46)
93 Jeremy Ford Colt 45 - The Gun Lame L1 0:00:00 13.0 - 35, 49 (Avg:49)
224 Matthew Haig Summer Breeze Lame L1 0:00:00 16.7 - 36, 45 (Avg:45)
Middleweight
225 Jane Walsh Banda Boozle 1 (BC) 4:40:00 17.3, 16.9 17.14 30, 40, 53 (Avg:46)
136 Kaye Mitchell Beer Street Bluewitch 2 5:12:00 17.0, 14.0 15.38 35, 40, 47 (Avg:43)
179 Debbie Grull Lauralyn Notorious 3 5:14:00 15.4, 15.0 15.29 36, 42, 45 (Avg:43)
94 Natalie Humphries Karabah Tully 4 5:18:00 15.3, 14.8 15.09 40, 46, 53 (Avg:49)
246 Heather Hampson Costa Zu 5 5:52:00 15.6, 12.0 13.64 40, 51, 60 (Avg:55)
250 Kaleb Smith Beaucheval Akhiran 6 5:56:00 15.4, 11.9 13.48 30, 47, 54 (Avg:50)
180 Nicole Ford Highland View Piper 7 6:27:00 14.6, 10.7 12.40 34, 50, 46 (Avg:48)
119A Max Lockhart Vandieman Princess Ellie 8 6:39:00 12.4, 11.5 12.03 43, 47, 53 (Avg:50)
96 Anita Johnson Mulawa Wisdom 9 6:52:00 13.6, 10.1 11.65 44, 45, 57 (Avg:51)
114 Tara Nicklason Kairo 9 6:52:00 13.0, 10.5 11.65 38, 46, 58 (Avg:52)
78 Brad Hill Suroco 11 7:00:00 12.4, 10.5 11.43 65, 52, 59 (Avg:55)
77 Alison Lockhart Lockleigh Park Misty Rose 11 7:00:00 12.4, 10.5 11.43 36, 48, 54 (Avg:51)
101 Wendy Rand Shayelle Memphis 13 7:01:00 11.5, 11.2 11.40 41, 38, 50 (Avg:44)
142 Shayne Williams Shayelle Chocolate 13 7:01:00 11.5, 11.2 11.40 37, 40, 50 (Avg:45)
204 Casey Hayes Bellawongarah Morgan 15 7:53:00 10.8, 9.5 10.15 40, 47, 56 (Avg:51)
227 Mary Austin Cookie Lame L2 0:00:00 15.4, 11.4 - 36, 48, 49 (Avg:48)
189 Leonie Stewart Rojenn Retaan Heart Rate L2 0:00:00 16.6, 12.1 - 38, 50, 63 (Avg:56)
57 Tania Jago Undurra Geisha Lame L1 0:00:00 16.4 - 50, 47 (Avg:47)
119 Max Lockhart Billy Lame P/R 0:00:00 - - 52
Lightweight
60 Jill Lowth Orabanda Dancing Silhouette 1 5:12:00 16.7, 14.2 15.38 35, 44, 51 (Avg:47)
147 Angela Hawks Summit Park Asset 2 (BC) 5:18:00 15.9, 14.2 15.09 31, 39, 44 (Avg:41)
100 Trish Smith Anglesea Piccolo 3 5:55:00 15.4, 11.9 13.52 37, 41, 42 (Avg:41)
201 Linda Blanchard Galoubet 4 6:15:00 13.3, 12.3 12.80 32, 41, 51 (Avg:46)
175 Carolyn Webster Echo Phoebe 4 6:15:00 13.3, 12.3 12.80 36, 45, 47 (Avg:46)
37 Jen Clingly Diamond Tail Desert Opal 6 6:40:00 13.1, 11.0 12.00 40, 40, 44 (Avg:42)
8 Jean Treloar Kerrilea My Kharim 7 6:52:00 13.2, 10.3 11.65 41, 49, 58 (Avg:53)
248 Kristin Kay Malricia Ned 8 6:57:00 12.7, 10.4 11.51 42, 45, 55 (Avg:50)
26 Narelle Sward Pallano Kisha 9 7:59:00 10.4, 9.5 10.02 43, 45, 59 (Avg:52)
Junior
154 Sarah Parker King Park Aberdeen Pelion 1 5:12:00 17.3, 13.7 15.38 34, 44, 58 (Avg:51)
79 Shannon Hill Lockleigh Park Wildfire 2 (BC) 5:13:00 16.4, 14.3 15.34 44, 46, 47 (Avg:46)
205 Ashleigh Green Highland View Eclipse 3 6:27:00 14.6, 10.7 12.40 35, 40, 48 (Avg:44)
47 Hannah Colbeck Nabowla Nook Nite 4 6:57:00 12.7, 10.4 11.51 30, 37, 41 (Avg:39)
113 Kirstie Lockhart Lockleigh Park Star 5 7:00:00 12.4, 10.5 11.43 37, 51, 40 (Avg:45)
186 Amelia Napier Bellawongarah Holly 6 7:53:00 10.8, 9.5 10.15 39, 49, 55 (Avg:52)
190 Alice Mitchell Beer Street Takone Lame L2 0:00:00 17.0, 14.1 - 33, 46, 48 (Avg:47)
121 Reuben Nicklason Mulawa Flight Lame L2 0:00:00 13.0, 10.5 - 40, 44, 59 (Avg:51)